Time;durP1;ratioP1;P1;durP2;ratioP2;P2;SDS_P1;SDS_P2;PMS_P1;PMS_P2;Temp;Humidity;BMP_temperature;BMP_pressure;BME280_temperature;BME280_humidity;BME280_pressure;Samples;Min_cycle;Max_cycle;Signal;HPM_P1;HPM_P2
2023/09/15 00:00:21;;;;;;;11.82;4.28;;;;;;;;;;5056498;28;20102;-59
2023/09/15 00:02:47;;;;;;;12.15;4.05;;;;;;;;;;5063967;28;20038;-59
2023/09/15 00:05:15;;;;;;;8.88;3.47;;;;;;;;;;5057079;28;20178;-59
2023/09/15 00:07:41;;;;;;;12.60;4.60;;;;;;;;;;5063098;28;20127;-59
2023/09/15 00:10:11;;;;;;;9.45;3.80;;;;;;;;;;5061904;28;20067;-60
2023/09/15 00:12:38;;;;;;;10.02;4.43;;;;;;;;;;5070761;28;20097;-59
2023/09/15 00:15:08;;;;;;;13.38;4.85;;;;;;;;;;5068471;28;20434;-60
2023/09/15 00:17:35;;;;;;;10.82;4.40;;;;;;;;;;5061231;28;20055;-59
2023/09/15 00:20:04;;;;;;;8.90;3.88;;;;;;;;;;5060076;28;20056;-59
2023/09/15 00:22:30;;;;;;;14.18;4.68;;;;;;;;;;5060614;28;20045;-59
2023/09/15 00:24:56;;;;;;;10.73;4.20;;;;;;;;;;5059117;28;20466;-59
2023/09/15 00:27:23;;;;;;;10.73;4.10;;;;;;;;;;5058636;28;20040;-59
2023/09/15 00:29:49;;;;;;;11.02;4.55;;;;;;;;;;5060152;28;20047;-59
2023/09/15 00:32:15;;;;;;;14.38;4.63;;;;;;;;;;5062335;28;20471;-59
2023/09/15 00:34:41;;;;;;;13.13;4.45;;;;;;;;;;5062052;28;20044;-59
2023/09/15 00:37:07;;;;;;;12.68;4.68;;;;;;;;;;5059011;28;20075;-59
2023/09/15 00:39:33;;;;;;;9.80;4.13;;;;;;;;;;5059034;28;20048;-61
2023/09/15 00:42:00;;;;;;;10.73;4.30;;;;;;;;;;5060970;28;20556;-69
2023/09/15 00:44:26;;;;;;;10.32;4.10;;;;;;;;;;5063278;28;20048;-59
2023/09/15 00:46:52;;;;;;;11.38;4.28;;;;;;;;;;5063228;28;20051;-59
2023/09/15 00:49:18;;;;;;;10.73;5.70;;;;;;;;;;5058801;28;20450;-59
2023/09/15 00:51:44;;;;;;;9.77;4.50;;;;;;;;;;5061844;28;20142;-59
2023/09/15 00:54:12;;;;;;;13.27;4.70;;;;;;;;;;5059216;28;20060;-59
2023/09/15 00:56:38;;;;;;;13.63;4.47;;;;;;;;;;5062701;28;20044;-59
2023/09/15 00:59:05;;;;;;;14.02;4.55;;;;;;;;;;5055529;28;20049;-59
2023/09/15 01:01:32;;;;;;;10.88;4.28;;;;;;;;;;5062289;28;20044;-59
2023/09/15 01:03:58;;;;;;;12.70;4.47;;;;;;;;;;5063836;28;20093;-59
2023/09/15 01:06:26;;;;;;;8.13;4.15;;;;;;;;;;5062975;28;20040;-59
2023/09/15 01:08:55;;;;;;;9.80;4.55;;;;;;;;;;5057887;28;20048;-59
2023/09/15 01:11:21;;;;;;;10.60;3.88;;;;;;;;;;5061068;28;20118;-59
2023/09/15 01:13:49;;;;;;;10.68;3.92;;;;;;;;;;5064721;28;20475;-59
2023/09/15 01:16:19;;;;;;;9.32;4.55;;;;;;;;;;5058308;28;20132;-59
2023/09/15 01:19:21;;;;;;;14.00;4.57;;;;;;;;;;5059498;28;20119;-59
2023/09/15 01:22:05;;;;;;;9.63;4.03;;;;;;;;;;5014846;28;20148;-59
2023/09/15 01:24:50;;;;;;;13.40;4.50;;;;;;;;;;5054562;28;20103;-59
2023/09/15 01:27:19;;;;;;;13.13;4.53;;;;;;;;;;5060625;28;20489;-59
2023/09/15 01:29:47;;;;;;;10.48;5.18;;;;;;;;;;5058839;28;20566;-59
2023/09/15 01:32:15;;;;;;;8.40;4.22;;;;;;;;;;5060820;28;20496;-60
2023/09/15 01:34:46;;;;;;;9.00;4.03;;;;;;;;;;5057763;28;20147;-59
2023/09/15 01:37:13;;;;;;;13.40;4.63;;;;;;;;;;5057748;28;20510;-59
2023/09/15 01:39:39;;;;;;;11.85;3.83;;;;;;;;;;5058615;28;20033;-59
2023/09/15 01:42:05;;;;;;;9.55;4.28;;;;;;;;;;5058177;28;20147;-59
2023/09/15 01:44:31;;;;;;;10.43;4.57;;;;;;;;;;5061287;28;20052;-59
2023/09/15 01:46:57;;;;;;;10.75;4.45;;;;;;;;;;5063178;28;20398;-59
2023/09/15 01:49:25;;;;;;;11.60;3.92;;;;;;;;;;5058117;28;20063;-59
2023/09/15 01:51:51;;;;;;;11.38;4.82;;;;;;;;;;5055629;28;20044;-60
2023/09/15 01:54:18;;;;;;;11.32;3.78;;;;;;;;;;5060206;28;20118;-59
2023/09/15 01:56:44;;;;;;;8.77;3.88;;;;;;;;;;5063299;28;20492;-59
2023/09/15 01:59:11;;;;;;;9.63;4.20;;;;;;;;;;5058986;28;20136;-59
2023/09/15 02:01:37;;;;;;;9.50;4.68;;;;;;;;;;5056331;28;20036;-59
2023/09/15 02:04:04;;;;;;;11.27;4.00;;;;;;;;;;5059332;28;20040;-59
2023/09/15 02:06:31;;;;;;;11.43;4.15;;;;;;;;;;5054540;28;20128;-59
2023/09/15 02:08:57;;;;;;;10.43;3.83;;;;;;;;;;5073275;28;20044;-59
2023/09/15 02:11:23;;;;;;;11.38;4.05;;;;;;;;;;5060129;28;20037;-59
2023/09/15 02:13:49;;;;;;;8.07;3.90;;;;;;;;;;5059671;28;20087;-59
2023/09/15 02:16:16;;;;;;;14.38;5.20;;;;;;;;;;5068560;28;20377;-59
2023/09/15 02:18:42;;;;;;;11.40;4.40;;;;;;;;;;5067862;28;20094;-59
2023/09/15 02:21:09;;;;;;;8.98;4.57;;;;;;;;;;5063889;28;20102;-59
2023/09/15 02:23:35;;;;;;;10.73;4.32;;;;;;;;;;5066360;28;20044;-59
2023/09/15 02:26:05;;;;;;;10.93;4.35;;;;;;;;;;5058521;28;20040;-59
2023/09/15 02:28:32;;;;;;;10.60;4.10;;;;;;;;;;5063459;28;20044;-59
2023/09/15 02:30:58;;;;;;;13.73;4.72;;;;;;;;;;5071582;28;20148;-59
2023/09/15 02:33:25;;;;;;;8.68;4.60;;;;;;;;;;5066748;28;20083;-59
2023/09/15 02:35:51;;;;;;;11.82;4.68;;;;;;;;;;5071332;28;20052;-59
2023/09/15 02:38:18;;;;;;;7.82;4.65;;;;;;;;;;5070475;28;20101;-59
2023/09/15 02:40:44;;;;;;;14.32;4.85;;;;;;;;;;5062652;28;20052;-59
2023/09/15 02:43:10;;;;;;;9.68;4.28;;;;;;;;;;5064577;28;20041;-59
2023/09/15 02:45:36;;;;;;;10.57;4.75;;;;;;;;;;5063937;28;20452;-59
2023/09/15 02:48:03;;;;;;;13.07;4.57;;;;;;;;;;5062506;28;20048;-60
2023/09/15 02:50:30;;;;;;;10.77;4.35;;;;;;;;;;5062218;28;20045;-59
2023/09/15 02:52:56;;;;;;;6.45;3.55;;;;;;;;;;5064580;28;20057;-59
2023/09/15 02:55:22;;;;;;;11.38;4.30;;;;;;;;;;5061484;28;20123;-59
2023/09/15 02:57:52;;;;;;;13.73;4.30;;;;;;;;;;5062637;28;20226;-59
2023/09/15 03:00:19;;;;;;;10.65;4.47;;;;;;;;;;5062239;28;20067;-59
2023/09/15 03:02:46;;;;;;;13.60;3.90;;;;;;;;;;5062826;28;20105;-59
2023/09/15 03:05:12;;;;;;;10.80;3.97;;;;;;;;;;5066536;28;20067;-59
2023/09/15 03:07:39;;;;;;;12.48;4.60;;;;;;;;;;5062450;28;20464;-59
2023/09/15 03:10:08;;;;;;;11.23;4.15;;;;;;;;;;5062791;28;20492;-59
2023/09/15 03:12:35;;;;;;;11.15;4.20;;;;;;;;;;5062266;28;20033;-59
2023/09/15 03:15:06;;;;;;;11.80;4.85;;;;;;;;;;5059621;28;20053;-59
2023/09/15 03:17:32;;;;;;;13.60;4.75;;;;;;;;;;5063585;28;20045;-59
2023/09/15 03:19:59;;;;;;;8.93;4.72;;;;;;;;;;5071583;28;20064;-59
2023/09/15 03:22:27;;;;;;;11.60;4.22;;;;;;;;;;5072419;28;20396;-59
2023/09/15 03:24:53;;;;;;;12.32;4.68;;;;;;;;;;5069186;28;20090;-59
2023/09/15 03:27:20;;;;;;;13.18;4.45;;;;;;;;;;5060825;28;20190;-59
2023/09/15 03:29:46;;;;;;;9.13;3.90;;;;;;;;;;5061650;28;20079;-59
2023/09/15 03:32:12;;;;;;;10.05;4.10;;;;;;;;;;5064016;28;20051;-59
2023/09/15 03:34:38;;;;;;;8.45;4.28;;;;;;;;;;5062096;28;20037;-59
2023/09/15 03:37:07;;;;;;;8.95;4.28;;;;;;;;;;5061580;28;20040;-59
2023/09/15 03:39:33;;;;;;;10.07;4.38;;;;;;;;;;5062227;28;20422;-59
2023/09/15 03:42:00;;;;;;;11.93;4.68;;;;;;;;;;5063063;28;20087;-59
2023/09/15 03:44:26;;;;;;;15.25;5.88;;;;;;;;;;5059877;28;20502;-59
2023/09/15 03:46:52;;;;;;;10.43;4.75;;;;;;;;;;5064854;28;20044;-59
2023/09/15 03:49:19;;;;;;;8.07;4.20;;;;;;;;;;5065056;28;20057;-59
2023/09/15 03:51:45;;;;;;;10.93;4.70;;;;;;;;;;5065612;28;20045;-59
2023/09/15 03:54:11;;;;;;;11.60;4.47;;;;;;;;;;5060957;28;20037;-59
2023/09/15 03:56:37;;;;;;;8.38;4.40;;;;;;;;;;5060633;28;20070;-59
2023/09/15 03:59:03;;;;;;;14.10;5.72;;;;;;;;;;5059371;28;20107;-59
2023/09/15 04:01:31;;;;;;;10.80;4.70;;;;;;;;;;5063255;28;20055;-60
2023/09/15 04:03:59;;;;;;;9.82;4.85;;;;;;;;;;5060594;28;20137;-59
2023/09/15 04:06:25;;;;;;;7.80;4.15;;;;;;;;;;5059120;28;20846;-59
2023/09/15 04:08:52;;;;;;;9.85;4.78;;;;;;;;;;5066096;28;20090;-59
2023/09/15 04:11:18;;;;;;;10.85;5.00;;;;;;;;;;5077791;28;20117;-59
2023/09/15 04:13:44;;;;;;;10.25;4.50;;;;;;;;;;5061223;28;20052;-59
2023/09/15 04:16:10;;;;;;;10.10;4.53;;;;;;;;;;5061880;28;20460;-59
2023/09/15 04:18:36;;;;;;;11.80;5.30;;;;;;;;;;5059781;28;20106;-59
2023/09/15 04:21:04;;;;;;;7.32;4.20;;;;;;;;;;5059646;28;20044;-59
2023/09/15 04:23:30;;;;;;;10.77;5.30;;;;;;;;;;5060469;28;21025;-59
2023/09/15 04:25:57;;;;;;;14.02;4.50;;;;;;;;;;5058565;28;20040;-59
2023/09/15 04:28:23;;;;;;;10.68;4.65;;;;;;;;;;5062380;28;20132;-59
2023/09/15 04:30:49;;;;;;;12.77;4.75;;;;;;;;;;5061183;28;20087;-59
2023/09/15 04:33:15;;;;;;;14.85;5.10;;;;;;;;;;5059445;28;20044;-59
2023/09/15 04:35:42;;;;;;;12.02;5.10;;;;;;;;;;5061326;28;20052;-59
2023/09/15 04:38:08;;;;;;;12.73;5.43;;;;;;;;;;5059145;28;20181;-59
2023/09/15 04:40:35;;;;;;;10.32;5.18;;;;;;;;;;5060043;28;20088;-59
2023/09/15 04:43:01;;;;;;;8.60;4.53;;;;;;;;;;5061857;28;20415;-59
2023/09/15 04:45:27;;;;;;;13.20;5.50;;;;;;;;;;5067592;28;20032;-59
2023/09/15 04:47:53;;;;;;;10.40;4.60;;;;;;;;;;5059342;28;20073;-59
2023/09/15 04:50:20;;;;;;;10.80;4.57;;;;;;;;;;5061353;28;20105;-59
2023/09/15 04:52:46;;;;;;;11.18;4.63;;;;;;;;;;5061672;28;20051;-58
2023/09/15 04:55:12;;;;;;;12.38;5.40;;;;;;;;;;5058651;28;20037;-58
2023/09/15 04:57:38;;;;;;;14.13;5.25;;;;;;;;;;5059428;28;20116;-59
2023/09/15 05:00:11;;;;;;;13.90;4.80;;;;;;;;;;5061341;28;21306;-58
2023/09/15 05:02:37;;;;;;;10.80;5.57;;;;;;;;;;5061460;28;20048;-59
2023/09/15 05:05:04;;;;;;;13.68;5.28;;;;;;;;;;5060209;28;20394;-59
2023/09/15 05:07:30;;;;;;;13.95;4.80;;;;;;;;;;5067139;28;20032;-59
2023/09/15 05:09:56;;;;;;;12.02;4.85;;;;;;;;;;5063086;28;20419;-58
2023/09/15 05:12:22;;;;;;;13.93;5.22;;;;;;;;;;5061395;28;20441;-59
2023/09/15 05:14:48;;;;;;;14.13;5.30;;;;;;;;;;5058985;28;20086;-59
2023/09/15 05:17:15;;;;;;;10.10;5.10;;;;;;;;;;5060878;28;20060;-59
2023/09/15 05:19:41;;;;;;;14.48;5.00;;;;;;;;;;5062465;28;20044;-59
2023/09/15 05:22:08;;;;;;;8.90;4.13;;;;;;;;;;5058390;28;20139;-58
2023/09/15 05:24:34;;;;;;;13.10;4.70;;;;;;;;;;5059625;28;20051;-59
2023/09/15 05:27:00;;;;;;;11.32;4.38;;;;;;;;;;5061144;28;20045;-58
2023/09/15 05:29:26;;;;;;;8.05;4.40;;;;;;;;;;5060033;28;20064;-59
2023/09/15 05:31:53;;;;;;;9.65;4.03;;;;;;;;;;5063971;28;20040;-59
2023/09/15 05:34:19;;;;;;;13.18;4.65;;;;;;;;;;5059733;28;20112;-59
2023/09/15 05:36:45;;;;;;;9.73;4.10;;;;;;;;;;5058098;28;20040;-58
2023/09/15 05:39:11;;;;;;;12.20;4.35;;;;;;;;;;5062724;28;20092;-59
2023/09/15 05:41:37;;;;;;;13.63;4.43;;;;;;;;;;5065884;28;20048;-59
2023/09/15 05:44:04;;;;;;;9.50;4.53;;;;;;;;;;5066345;28;20047;-59
2023/09/15 05:46:30;;;;;;;10.13;4.13;;;;;;;;;;5062634;28;20052;-59
2023/09/15 05:48:56;;;;;;;13.90;4.18;;;;;;;;;;5062171;28;20056;-59
2023/09/15 05:51:23;;;;;;;9.57;3.95;;;;;;;;;;5066749;28;20041;-59
2023/09/15 05:53:49;;;;;;;11.60;4.43;;;;;;;;;;5064047;28;20104;-59
2023/09/15 05:56:15;;;;;;;9.55;4.13;;;;;;;;;;5068324;28;20045;-60
2023/09/15 05:58:41;;;;;;;7.95;4.38;;;;;;;;;;5096672;28;20404;-59
2023/09/15 06:01:07;;;;;;;10.00;4.10;;;;;;;;;;5062603;28;20037;-59
2023/09/15 06:03:34;;;;;;;11.02;4.05;;;;;;;;;;5064766;28;20094;-59
2023/09/15 06:06:00;;;;;;;11.25;4.45;;;;;;;;;;5065475;28;20028;-60
2023/09/15 06:08:27;;;;;;;10.68;4.57;;;;;;;;;;5070417;28;20056;-59
2023/09/15 06:10:54;;;;;;;11.02;4.07;;;;;;;;;;5066115;28;20111;-59
2023/09/15 06:13:20;;;;;;;7.70;3.95;;;;;;;;;;5061063;28;20048;-59
2023/09/15 06:15:46;;;;;;;10.25;4.60;;;;;;;;;;5070180;28;20036;-64
2023/09/15 06:18:12;;;;;;;9.45;3.75;;;;;;;;;;5092923;28;20078;-59
2023/09/15 06:20:38;;;;;;;7.75;4.20;;;;;;;;;;5067333;28;20474;-59
2023/09/15 06:23:05;;;;;;;10.55;4.60;;;;;;;;;;5067671;28;20029;-59
2023/09/15 06:25:31;;;;;;;15.35;5.10;;;;;;;;;;5069164;28;20068;-59
2023/09/15 06:27:59;;;;;;;11.32;4.07;;;;;;;;;;5070286;28;20045;-59
2023/09/15 06:30:27;;;;;;;9.85;4.05;;;;;;;;;;5069355;28;20049;-59
2023/09/15 06:32:57;;;;;;;13.18;5.07;;;;;;;;;;5062975;28;20538;-59
2023/09/15 06:35:23;;;;;;;17.17;4.13;;;;;;;;;;5066312;28;20049;-59
2023/09/15 06:37:50;;;;;;;8.88;3.80;;;;;;;;;;5060767;28;20512;-59
2023/09/15 06:40:16;;;;;;;9.45;4.55;;;;;;;;;;5060452;28;20037;-59
2023/09/15 06:42:42;;;;;;;8.85;4.43;;;;;;;;;;5059726;28;20192;-59
2023/09/15 06:45:10;;;;;;;8.68;4.13;;;;;;;;;;5057047;28;20045;-59
2023/09/15 06:47:36;;;;;;;9.38;4.22;;;;;;;;;;5060693;28;20068;-59
2023/09/15 06:50:03;;;;;;;11.98;4.60;;;;;;;;;;5069029;28;20052;-60
2023/09/15 06:52:30;;;;;;;11.60;4.20;;;;;;;;;;5067113;28;20365;-59
2023/09/15 06:54:56;;;;;;;10.90;4.35;;;;;;;;;;5064220;28;20051;-59
2023/09/15 06:57:23;;;;;;;9.38;4.03;;;;;;;;;;5069161;28;20048;-58
2023/09/15 06:59:49;;;;;;;11.15;4.15;;;;;;;;;;5069811;28;20123;-58
2023/09/15 07:02:16;;;;;;;11.07;4.40;;;;;;;;;;5067222;28;20177;-58
2023/09/15 07:04:43;;;;;;;8.30;4.03;;;;;;;;;;5069364;28;20114;-58
2023/09/15 07:07:10;;;;;;;8.88;4.68;;;;;;;;;;5068235;28;20115;-59
2023/09/15 07:09:36;;;;;;;10.65;4.63;;;;;;;;;;5068325;28;20048;-58
2023/09/15 07:12:04;;;;;;;9.80;4.55;;;;;;;;;;5064498;28;20048;-59
2023/09/15 07:14:30;;;;;;;11.32;5.45;;;;;;;;;;5071223;28;20055;-59
2023/09/15 07:16:56;;;;;;;9.98;4.03;;;;;;;;;;5072046;28;20039;-60
2023/09/15 07:19:22;;;;;;;8.70;4.28;;;;;;;;;;5072534;28;20463;-59
2023/09/15 07:21:48;;;;;;;12.70;4.75;;;;;;;;;;5071395;28;20085;-60
2023/09/15 07:24:14;;;;;;;14.15;4.82;;;;;;;;;;5072024;28;20044;-60
2023/09/15 07:26:41;;;;;;;7.35;4.60;;;;;;;;;;5071494;28;20420;-60
2023/09/15 07:29:07;;;;;;;13.35;4.38;;;;;;;;;;5070630;28;20036;-60
2023/09/15 07:31:35;;;;;;;10.02;3.90;;;;;;;;;;5071316;28;20055;-59
2023/09/15 07:34:01;;;;;;;8.50;3.83;;;;;;;;;;5072369;28;20443;-60
2023/09/15 07:36:27;;;;;;;8.02;4.25;;;;;;;;;;5072571;28;20392;-60
2023/09/15 07:38:54;;;;;;;8.90;4.15;;;;;;;;;;5072639;28;20391;-60
2023/09/15 07:41:20;;;;;;;10.15;4.60;;;;;;;;;;5070538;28;20044;-59
2023/09/15 07:43:55;;;;;;;10.88;4.00;;;;;;;;;;5071523;28;20049;-59
2023/09/15 07:46:24;;;;;;;10.38;4.38;;;;;;;;;;5071026;28;20484;-60
2023/09/15 07:48:54;;;;;;;10.48;3.95;;;;;;;;;;5072526;28;20060;-60
2023/09/15 07:51:20;;;;;;;11.05;4.32;;;;;;;;;;5069503;28;20048;-60
2023/09/15 07:53:47;;;;;;;8.73;4.05;;;;;;;;;;5072456;28;20051;-60
2023/09/15 07:56:13;;;;;;;8.00;4.00;;;;;;;;;;5071577;28;20043;-60
2023/09/15 07:58:40;;;;;;;7.72;4.47;;;;;;;;;;5071847;28;20063;-60
2023/09/15 08:01:07;;;;;;;9.82;3.90;;;;;;;;;;5070548;28;20048;-60
2023/09/15 08:03:33;;;;;;;11.30;4.32;;;;;;;;;;5070888;28;20049;-60
2023/09/15 08:06:00;;;;;;;8.65;3.92;;;;;;;;;;5072061;28;20143;-60
2023/09/15 08:08:26;;;;;;;11.23;4.32;;;;;;;;;;5073558;28;20123;-60
2023/09/15 08:10:52;;;;;;;8.30;4.15;;;;;;;;;;5070583;28;20388;-60
2023/09/15 08:13:18;;;;;;;11.43;3.85;;;;;;;;;;5072936;28;20037;-60
2023/09/15 08:15:44;;;;;;;15.48;4.88;;;;;;;;;;5072057;28;20396;-60
2023/09/15 08:18:10;;;;;;;13.02;4.90;;;;;;;;;;5071651;28;20093;-60
2023/09/15 08:20:37;;;;;;;11.90;4.80;;;;;;;;;;5069560;28;20191;-60
2023/09/15 08:23:03;;;;;;;8.45;4.03;;;;;;;;;;5071662;28;20111;-60
2023/09/15 08:25:35;;;;;;;7.28;3.95;;;;;;;;;;5071163;28;20045;-60
2023/09/15 08:28:03;;;;;;;9.82;4.82;;;;;;;;;;5071324;28;20040;-60
2023/09/15 08:30:30;;;;;;;6.40;3.70;;;;;;;;;;5071446;28;20048;-60
2023/09/15 08:32:56;;;;;;;8.07;3.42;;;;;;;;;;5071098;28;20117;-60
2023/09/15 08:35:22;;;;;;;8.98;3.67;;;;;;;;;;5069500;28;20496;-60
2023/09/15 08:37:48;;;;;;;7.85;3.45;;;;;;;;;;5066836;28;20043;-60
2023/09/15 08:40:15;;;;;;;10.75;3.90;;;;;;;;;;5069708;28;20495;-60
2023/09/15 08:42:41;;;;;;;7.85;3.50;;;;;;;;;;5071122;28;20093;-60
2023/09/15 08:45:08;;;;;;;8.75;3.42;;;;;;;;;;5070340;28;20098;-60
2023/09/15 08:47:36;;;;;;;9.65;3.58;;;;;;;;;;5069651;28;20048;-60
2023/09/15 08:50:03;;;;;;;7.95;3.53;;;;;;;;;;5069759;28;20052;-60
2023/09/15 08:52:30;;;;;;;12.73;3.90;;;;;;;;;;5069822;28;20047;-60
2023/09/15 08:54:57;;;;;;;11.25;3.40;;;;;;;;;;5064945;28;20637;-60
2023/09/15 08:57:23;;;;;;;9.35;3.53;;;;;;;;;;5069627;28;20056;-60
2023/09/15 08:59:50;;;;;;;14.52;4.30;;;;;;;;;;5072590;28;20037;-60
2023/09/15 09:02:17;;;;;;;8.75;3.50;;;;;;;;;;5070489;28;20701;-60
2023/09/15 09:04:43;;;;;;;8.23;3.85;;;;;;;;;;5067321;28;20044;-60
2023/09/15 09:07:09;;;;;;;10.55;3.88;;;;;;;;;;5062549;28;20430;-60
2023/09/15 09:09:37;;;;;;;11.25;3.63;;;;;;;;;;5066378;28;20445;-59
2023/09/15 09:12:03;;;;;;;10.80;3.60;;;;;;;;;;5069670;28;20075;-59
2023/09/15 09:14:32;;;;;;;8.02;3.10;;;;;;;;;;5070155;28;20063;-59
2023/09/15 09:16:59;;;;;;;10.43;3.55;;;;;;;;;;5065962;28;20051;-59
2023/09/15 09:19:34;;;;;;;11.60;3.97;;;;;;;;;;5066485;28;20238;-60
2023/09/15 09:22:01;;;;;;;9.50;3.95;;;;;;;;;;5068955;28;20484;-59
2023/09/15 09:24:28;;;;;;;7.90;3.65;;;;;;;;;;5070808;28;20123;-59
2023/09/15 09:26:54;;;;;;;7.68;3.97;;;;;;;;;;5064719;28;20497;-60
2023/09/15 09:29:25;;;;;;;7.32;3.42;;;;;;;;;;5068964;28;20060;-60
2023/09/15 09:31:51;;;;;;;8.52;4.18;;;;;;;;;;5070995;28;20052;-59
2023/09/15 09:34:18;;;;;;;8.77;3.85;;;;;;;;;;5070121;28;20388;-59
2023/09/15 09:36:48;;;;;;;10.07;4.18;;;;;;;;;;5063795;28;20036;-60
2023/09/15 09:39:14;;;;;;;12.15;5.38;;;;;;;;;;5069781;28;20438;-59
2023/09/15 09:41:42;;;;;;;10.50;4.50;;;;;;;;;;5070157;28;20036;-60
2023/09/15 09:44:09;;;;;;;9.32;4.18;;;;;;;;;;5068418;28;20499;-60
2023/09/15 09:46:36;;;;;;;9.27;4.25;;;;;;;;;;5063820;28;20036;-60
2023/09/15 09:49:03;;;;;;;8.82;4.63;;;;;;;;;;5066012;28;20060;-60
2023/09/15 09:51:30;;;;;;;8.02;3.88;;;;;;;;;;5069419;28;20142;-60
2023/09/15 09:53:56;;;;;;;8.25;4.40;;;;;;;;;;5070431;28;20511;-60
2023/09/15 09:56:22;;;;;;;10.85;4.18;;;;;;;;;;5068945;28;20036;-59
2023/09/15 09:58:48;;;;;;;10.10;4.57;;;;;;;;;;5068572;28;20043;-59
2023/09/15 10:01:15;;;;;;;12.30;4.30;;;;;;;;;;5069972;28;20086;-60
2023/09/15 10:03:41;;;;;;;11.32;4.28;;;;;;;;;;5069592;28;20050;-59
2023/09/15 10:06:08;;;;;;;10.07;4.78;;;;;;;;;;5069060;28;20392;-59
2023/09/15 10:08:39;;;;;;;9.68;4.13;;;;;;;;;;5069527;28;20162;-59
2023/09/15 10:11:06;;;;;;;11.95;4.70;;;;;;;;;;5069499;28;20036;-59
2023/09/15 10:13:34;;;;;;;12.32;4.55;;;;;;;;;;5070177;28;20053;-59
2023/09/15 10:16:00;;;;;;;10.23;4.22;;;;;;;;;;5068374;28;20048;-59
2023/09/15 10:18:27;;;;;;;14.70;4.85;;;;;;;;;;5068515;28;20044;-59
2023/09/15 10:20:54;;;;;;;16.30;4.63;;;;;;;;;;5069607;28;20033;-59
2023/09/15 10:23:20;;;;;;;10.27;4.85;;;;;;;;;;5070337;28;20341;-59
2023/09/15 10:25:50;;;;;;;12.68;5.20;;;;;;;;;;5065608;28;20067;-60
2023/09/15 10:28:20;;;;;;;10.35;5.10;;;;;;;;;;5069841;28;20045;-60
2023/09/15 10:30:46;;;;;;;14.38;4.70;;;;;;;;;;5060782;28;20041;-61
2023/09/15 10:33:13;;;;;;;15.02;5.13;;;;;;;;;;5068377;28;20040;-61
2023/09/15 10:35:40;;;;;;;13.05;4.75;;;;;;;;;;5067858;28;20085;-61
2023/09/15 10:38:06;;;;;;;11.32;5.22;;;;;;;;;;5060337;28;20116;-61
2023/09/15 10:40:46;;;;;;;10.52;5.20;;;;;;;;;;5067888;28;20196;-61
2023/09/15 10:43:12;;;;;;;8.48;4.40;;;;;;;;;;5064380;28;20041;-60
2023/09/15 10:45:38;;;;;;;9.40;4.55;;;;;;;;;;5063140;28;20042;-59
2023/09/15 10:48:05;;;;;;;8.05;4.22;;;;;;;;;;5072235;28;20052;-60
2023/09/15 10:50:36;;;;;;;7.35;3.85;;;;;;;;;;5073815;28;20480;-60
2023/09/15 10:53:15;;;;;;;7.70;3.90;;;;;;;;;;5069122;28;20107;-59
2023/09/15 10:55:41;;;;;;;12.07;5.00;;;;;;;;;;5073440;28;20067;-59
2023/09/15 10:58:07;;;;;;;9.90;4.57;;;;;;;;;;5072964;28;20437;-59
2023/09/15 11:00:34;;;;;;;10.48;4.60;;;;;;;;;;5071308;28;20040;-59
2023/09/15 11:03:01;;;;;;;9.77;4.60;;;;;;;;;;5070796;28;20051;-60
2023/09/15 11:05:28;;;;;;;10.20;4.75;;;;;;;;;;5071648;28;20063;-60
2023/09/15 11:07:56;;;;;;;8.85;3.65;;;;;;;;;;5068556;28;20553;-60
2023/09/15 11:10:32;;;;;;;8.43;3.33;;;;;;;;;;5069227;28;20097;-60
2023/09/15 11:12:59;;;;;;;7.80;3.42;;;;;;;;;;5069612;28;20452;-59
2023/09/15 11:15:26;;;;;;;9.45;4.35;;;;;;;;;;5071797;28;20036;-59
2023/09/15 11:17:52;;;;;;;8.70;4.22;;;;;;;;;;5071237;28;20124;-60
2023/09/15 11:20:19;;;;;;;8.15;3.78;;;;;;;;;;5067106;28;20044;-60
2023/09/15 11:22:45;;;;;;;8.18;3.80;;;;;;;;;;5073506;28;20036;-60
2023/09/15 11:25:11;;;;;;;9.38;3.80;;;;;;;;;;5072532;28;20045;-60
2023/09/15 11:27:37;;;;;;;8.27;3.20;;;;;;;;;;5069981;28;20085;-60
2023/09/15 11:30:07;;;;;;;7.20;3.50;;;;;;;;;;5070680;28;20037;-60
2023/09/15 11:32:34;;;;;;;8.98;3.90;;;;;;;;;;5069345;28;20325;-60
2023/09/15 11:35:05;;;;;;;7.20;3.53;;;;;;;;;;5061073;28;20144;-60
2023/09/15 11:37:34;;;;;;;10.00;3.58;;;;;;;;;;5071724;28;20080;-60
2023/09/15 11:40:00;;;;;;;6.53;3.22;;;;;;;;;;5069424;28;20091;-60
2023/09/15 11:42:27;;;;;;;7.40;3.17;;;;;;;;;;5069894;28;20263;-61
2023/09/15 11:44:55;;;;;;;7.07;3.30;;;;;;;;;;5060946;28;20507;-61
2023/09/15 11:47:21;;;;;;;10.05;3.42;;;;;;;;;;5072976;28;20458;-61
2023/09/15 11:49:48;;;;;;;6.63;3.17;;;;;;;;;;5071880;28;20490;-60
2023/09/15 11:52:15;;;;;;;7.43;2.92;;;;;;;;;;5071948;28;20064;-61
2023/09/15 11:54:44;;;;;;;8.90;3.33;;;;;;;;;;5069873;28;20044;-61
2023/09/15 11:57:11;;;;;;;6.90;2.67;;;;;;;;;;5065357;28;20083;-61
2023/09/15 11:59:37;;;;;;;5.50;2.83;;;;;;;;;;5062517;28;20040;-61
2023/09/15 12:02:04;;;;;;;5.43;2.90;;;;;;;;;;5067027;28;20040;-62
2023/09/15 12:04:30;;;;;;;7.35;2.70;;;;;;;;;;5067249;28;20048;-61
2023/09/15 12:06:57;;;;;;;8.75;2.42;;;;;;;;;;5070627;28;20127;-60
2023/09/15 12:09:23;;;;;;;6.13;2.75;;;;;;;;;;5068324;28;20111;-67
2023/09/15 12:11:52;;;;;;;6.30;2.53;;;;;;;;;;5070357;28;20125;-61
2023/09/15 12:14:18;;;;;;;7.15;2.60;;;;;;;;;;5070378;28;20047;-67
2023/09/15 12:16:48;;;;;;;9.48;2.72;;;;;;;;;;5098698;28;20072;-61
2023/09/15 12:19:15;;;;;;;9.93;2.70;;;;;;;;;;5066121;28;20061;-61
2023/09/15 12:21:55;;;;;;;7.22;2.70;;;;;;;;;;5062432;28;20041;-61
2023/09/15 12:24:22;;;;;;;8.80;3.03;;;;;;;;;;5071019;28;20048;-62
2023/09/15 12:26:50;;;;;;;8.65;2.63;;;;;;;;;;5070992;28;20086;-63
2023/09/15 12:29:16;;;;;;;8.93;2.60;;;;;;;;;;5069639;28;20389;-63
2023/09/15 12:31:47;;;;;;;6.57;2.88;;;;;;;;;;5069634;28;20480;-63
2023/09/15 12:34:19;;;;;;;8.95;3.17;;;;;;;;;;5070232;28;20194;-63
2023/09/15 12:36:47;;;;;;;7.00;2.50;;;;;;;;;;5069427;28;20055;-63
2023/09/15 12:39:13;;;;;;;7.63;2.30;;;;;;;;;;5067622;28;20048;-62
2023/09/15 12:41:39;;;;;;;5.38;2.17;;;;;;;;;;5070679;28;20040;-62
2023/09/15 12:44:05;;;;;;;6.93;2.55;;;;;;;;;;5070633;28;20496;-61
2023/09/15 12:46:32;;;;;;;5.20;2.08;;;;;;;;;;5070825;28;20040;-61
2023/09/15 12:48:58;;;;;;;9.07;2.20;;;;;;;;;;5069610;28;20094;-61
2023/09/15 12:51:24;;;;;;;5.72;2.55;;;;;;;;;;5071514;28;20120;-62
2023/09/15 12:53:50;;;;;;;5.72;2.53;;;;;;;;;;5070820;28;20105;-62
2023/09/15 12:56:16;;;;;;;8.93;2.85;;;;;;;;;;5071697;28;20134;-61
2023/09/15 12:58:42;;;;;;;9.20;2.70;;;;;;;;;;5071953;28;20048;-61
2023/09/15 13:01:09;;;;;;;6.40;2.47;;;;;;;;;;5070632;28;20048;-61
2023/09/15 13:03:35;;;;;;;6.15;2.40;;;;;;;;;;5065160;28;20123;-61
2023/09/15 13:06:02;;;;;;;6.22;2.47;;;;;;;;;;5062712;28;20514;-61
2023/09/15 13:08:28;;;;;;;5.40;2.20;;;;;;;;;;5069044;28;20041;-61
2023/09/15 13:10:54;;;;;;;8.10;3.15;;;;;;;;;;5070030;28;20037;-61
2023/09/15 13:13:20;;;;;;;5.25;2.08;;;;;;;;;;5070568;28;20040;-61
2023/09/15 13:15:47;;;;;;;11.23;2.72;;;;;;;;;;5066718;28;20099;-60
2023/09/15 13:18:13;;;;;;;6.78;2.78;;;;;;;;;;5069944;28;20480;-60
2023/09/15 13:20:39;;;;;;;5.88;2.40;;;;;;;;;;5069558;28;20481;-60
2023/09/15 13:23:05;;;;;;;5.53;2.15;;;;;;;;;;5070931;28;20040;-60
2023/09/15 13:25:32;;;;;;;7.53;2.90;;;;;;;;;;5071147;28;20044;-60
2023/09/15 13:27:58;;;;;;;8.30;2.65;;;;;;;;;;5102659;28;20097;-60
2023/09/15 13:30:25;;;;;;;10.52;2.22;;;;;;;;;;5069663;28;20051;-61
2023/09/15 13:32:51;;;;;;;6.63;2.42;;;;;;;;;;5069988;28;20059;-59
2023/09/15 13:35:17;;;;;;;6.47;2.40;;;;;;;;;;5069503;28;20140;-59
2023/09/15 13:37:43;;;;;;;8.20;2.25;;;;;;;;;;5102968;28;20044;-59
2023/09/15 13:40:10;;;;;;;5.55;2.38;;;;;;;;;;5068764;28;20044;-59
2023/09/15 13:42:38;;;;;;;9.48;2.65;;;;;;;;;;5068243;28;20047;-59
2023/09/15 13:45:05;;;;;;;8.00;2.58;;;;;;;;;;5068724;28;20500;-59
2023/09/15 13:47:32;;;;;;;6.70;2.28;;;;;;;;;;5068247;28;20102;-59
2023/09/15 13:49:59;;;;;;;7.65;2.38;;;;;;;;;;5067754;28;20120;-59
2023/09/15 13:52:26;;;;;;;5.90;2.13;;;;;;;;;;5068925;28;20071;-59
2023/09/15 13:54:52;;;;;;;7.28;2.50;;;;;;;;;;5069575;28;20076;-59
2023/09/15 13:57:19;;;;;;;7.00;2.75;;;;;;;;;;5069908;28;20127;-59
2023/09/15 13:59:46;;;;;;;10.82;3.42;;;;;;;;;;5070329;28;20178;-59
2023/09/15 14:02:12;;;;;;;8.10;2.53;;;;;;;;;;5069267;28;20044;-59
2023/09/15 14:04:39;;;;;;;6.63;2.50;;;;;;;;;;5070342;28;20488;-59
2023/09/15 14:07:06;;;;;;;6.68;2.47;;;;;;;;;;5070634;28;20438;-59
2023/09/15 14:09:33;;;;;;;7.97;2.50;;;;;;;;;;5068075;28;20119;-59
2023/09/15 14:12:00;;;;;;;6.88;2.83;;;;;;;;;;5070228;28;20598;-59
2023/09/15 14:14:26;;;;;;;7.38;2.72;;;;;;;;;;5052413;28;20044;-59
2023/09/15 14:16:54;;;;;;;6.95;2.53;;;;;;;;;;5068725;28;20107;-59
2023/09/15 14:19:20;;;;;;;7.65;2.63;;;;;;;;;;5071196;28;20052;-59
2023/09/15 14:21:47;;;;;;;6.50;2.30;;;;;;;;;;5074393;28;20501;-59
2023/09/15 14:24:14;;;;;;;6.78;2.42;;;;;;;;;;5073602;28;20052;-59
2023/09/15 14:26:40;;;;;;;11.20;2.90;;;;;;;;;;5074268;28;20036;-59
2023/09/15 14:29:06;;;;;;;6.57;2.20;;;;;;;;;;5074222;28;20036;-59
2023/09/15 14:31:33;;;;;;;7.43;2.30;;;;;;;;;;5073514;28;20048;-59
2023/09/15 14:33:59;;;;;;;7.97;2.33;;;;;;;;;;5074352;28;20028;-59